createdAt,value
2019-01-13T00:01:45.432Z,99.90
2019-01-13T00:04:14.680Z,99.90
2019-01-13T00:06:43.983Z,99.90
2019-01-13T00:09:13.378Z,99.90
2019-01-13T00:11:42.589Z,99.90
2019-01-13T00:14:11.904Z,99.90
2019-01-13T00:16:41.233Z,99.90
2019-01-13T00:19:10.462Z,99.90
2019-01-13T00:21:39.710Z,99.90
2019-01-13T00:24:08.950Z,99.90
2019-01-13T00:26:38.188Z,99.90
2019-01-13T00:29:08.130Z,99.90
2019-01-13T00:31:37.574Z,99.90
2019-01-13T00:34:06.815Z,99.90
2019-01-13T00:36:36.029Z,99.90
2019-01-13T00:39:08.027Z,99.90
2019-01-13T00:41:37.234Z,99.90
2019-01-13T00:44:06.670Z,99.90
2019-01-13T00:46:35.948Z,99.90
2019-01-13T00:49:05.338Z,99.90
2019-01-13T00:51:34.590Z,99.90
2019-01-13T00:54:04.054Z,99.90
2019-01-13T00:56:33.266Z,99.90
2019-01-13T00:59:02.526Z,99.90
2019-01-13T01:01:31.834Z,99.90
2019-01-13T01:04:01.237Z,99.90
2019-01-13T01:06:30.529Z,99.90
2019-01-13T01:08:59.872Z,99.90
2019-01-13T01:11:29.094Z,99.90
2019-01-13T01:13:58.366Z,99.90
2019-01-13T01:16:27.597Z,99.90
2019-01-13T01:18:56.880Z,99.90
2019-01-13T01:21:26.128Z,99.90
2019-01-13T01:23:55.429Z,99.90
2019-01-13T01:26:24.634Z,99.90
2019-01-13T01:28:53.846Z,99.90
2019-01-13T01:31:23.197Z,99.90
2019-01-13T01:33:52.663Z,99.90
2019-01-13T01:36:21.945Z,99.90
2019-01-13T01:38:51.212Z,99.90
2019-01-13T01:41:20.422Z,99.90
2019-01-13T01:43:49.633Z,99.90
2019-01-13T01:46:18.923Z,99.90
2019-01-13T01:48:48.153Z,99.90
2019-01-13T01:51:17.384Z,99.90
2019-01-13T01:53:46.668Z,99.90
2019-01-13T01:56:15.877Z,99.90
2019-01-13T01:58:45.117Z,99.90
2019-01-13T02:01:14.383Z,99.90
2019-01-13T02:03:43.616Z,99.90
2019-01-13T02:06:12.897Z,99.90
2019-01-13T02:08:42.184Z,99.90
2019-01-13T02:11:11.494Z,99.90
2019-01-13T02:13:40.898Z,99.90
2019-01-13T02:16:10.155Z,99.90
2019-01-13T02:18:39.419Z,99.90
2019-01-13T02:21:08.646Z,99.90
2019-01-13T02:23:37.899Z,99.90
2019-01-13T02:26:07.121Z,99.90
2019-01-13T02:28:36.389Z,99.90
2019-01-13T02:31:05.818Z,99.90
2019-01-13T02:33:35.133Z,99.90
2019-01-13T02:36:04.565Z,99.90
2019-01-13T02:38:33.901Z,99.90
2019-01-13T02:41:03.223Z,99.90
2019-01-13T02:43:32.554Z,99.90
2019-01-13T02:46:01.842Z,99.90
2019-01-13T02:48:31.104Z,99.90
2019-01-13T02:51:00.419Z,99.90
2019-01-13T02:53:29.743Z,99.90
2019-01-13T02:55:59.006Z,99.90
2019-01-13T02:58:28.209Z,99.90
2019-01-13T03:00:57.582Z,99.90
2019-01-13T03:03:26.860Z,99.90
2019-01-13T03:05:56.076Z,99.90
2019-01-13T03:08:25.366Z,99.90
2019-01-13T03:10:54.664Z,99.90
2019-01-13T03:13:23.929Z,99.90
2019-01-13T03:15:53.268Z,99.90
2019-01-13T03:18:22.501Z,99.90
2019-01-13T03:20:52.335Z,99.90
2019-01-13T03:23:21.688Z,99.90
2019-01-13T03:25:50.914Z,99.90
2019-01-13T03:28:20.321Z,99.90
2019-01-13T03:30:49.633Z,99.90
2019-01-13T03:33:18.935Z,99.90
2019-01-13T03:35:48.230Z,99.90
2019-01-13T03:38:17.497Z,99.90
2019-01-13T03:40:46.797Z,99.90
2019-01-13T03:43:16.018Z,99.90
2019-01-13T03:45:45.287Z,99.90
2019-01-13T03:48:14.561Z,99.90
2019-01-13T03:50:43.790Z,99.90
2019-01-13T03:53:13.042Z,99.90
2019-01-13T03:55:42.288Z,99.90
2019-01-13T03:58:11.527Z,99.90
2019-01-13T04:00:40.802Z,99.90
2019-01-13T04:03:10.010Z,99.90
2019-01-13T04:05:39.232Z,99.90
2019-01-13T04:08:08.572Z,99.90
2019-01-13T04:10:37.855Z,99.90
2019-01-13T04:13:07.075Z,99.90
2019-01-13T04:15:43.986Z,99.90
2019-01-13T04:18:13.216Z,99.90
2019-01-13T04:20:42.447Z,99.90
2019-01-13T04:23:11.698Z,99.90
2019-01-13T04:25:41.017Z,99.90
2019-01-13T04:28:10.245Z,99.90
2019-01-13T04:30:39.592Z,99.90
2019-01-13T04:33:08.851Z,99.90
2019-01-13T04:35:38.149Z,99.90
2019-01-13T04:38:07.495Z,99.90
2019-01-13T04:40:36.709Z,99.90
2019-01-13T04:43:06.105Z,99.90
2019-01-13T04:45:35.450Z,99.90
2019-01-13T04:48:04.955Z,99.90
2019-01-13T04:50:34.193Z,99.90
2019-01-13T04:53:03.445Z,99.90
2019-01-13T04:55:32.663Z,99.90
2019-01-13T04:58:01.903Z,99.90
2019-01-13T05:00:31.318Z,99.90
2019-01-13T05:03:00.606Z,99.90
2019-01-13T05:05:29.818Z,99.90
2019-01-13T05:07:59.075Z,99.90
2019-01-13T05:10:28.307Z,99.90
2019-01-13T05:12:59.219Z,99.90
2019-01-13T05:15:28.499Z,99.90
2019-01-13T05:17:57.805Z,99.90
2019-01-13T05:20:27.036Z,99.90
2019-01-13T05:22:56.755Z,99.90
2019-01-13T05:25:26.150Z,99.90
2019-01-13T05:27:55.402Z,99.90
2019-01-13T05:30:24.685Z,99.90
2019-01-13T05:32:53.942Z,99.90
2019-01-13T05:35:23.320Z,99.90
2019-01-13T05:37:52.706Z,99.90
2019-01-13T05:40:22.252Z,99.90
2019-01-13T05:42:51.461Z,99.90
2019-01-13T05:45:21.537Z,99.90
2019-01-13T05:47:50.808Z,99.90
2019-01-13T05:50:20.261Z,99.90
2019-01-13T05:52:54.675Z,99.90
2019-01-13T05:55:24.481Z,99.90
2019-01-13T05:57:53.779Z,99.90
2019-01-13T06:00:25.566Z,99.90
2019-01-13T06:02:55.051Z,99.90
2019-01-13T06:05:24.446Z,99.90
2019-01-13T06:07:53.761Z,99.90
2019-01-13T06:10:23.028Z,99.90
2019-01-13T06:12:52.296Z,99.90
2019-01-13T06:15:25.081Z,99.80
2019-01-13T06:17:54.378Z,99.90
2019-01-13T06:20:25.380Z,99.80
2019-01-13T06:22:54.767Z,99.90
2019-01-13T06:25:23.980Z,99.90
2019-01-13T06:27:53.245Z,99.90
2019-01-13T06:30:23.677Z,99.90
2019-01-13T06:32:52.986Z,99.90
2019-01-13T06:35:22.325Z,99.90
2019-01-13T06:37:51.673Z,99.90
2019-01-13T06:40:22.031Z,99.90
2019-01-13T06:42:51.287Z,99.90
2019-01-13T06:45:25.266Z,99.90
2019-01-13T06:47:54.468Z,99.90
2019-01-13T06:50:23.690Z,99.90
2019-01-13T06:52:52.916Z,99.90
2019-01-13T06:55:22.155Z,99.90
2019-01-13T06:57:51.470Z,99.90
2019-01-13T07:00:29.861Z,99.90
2019-01-13T07:02:59.639Z,99.90
2019-01-13T07:05:28.838Z,99.90
2019-01-13T07:07:58.054Z,99.90
2019-01-13T07:10:27.270Z,99.90
2019-01-13T07:12:56.503Z,99.60
2019-01-13T07:15:25.778Z,99.80
2019-01-13T07:17:54.994Z,99.90
2019-01-13T07:20:24.209Z,99.80
2019-01-13T07:22:53.469Z,99.90
2019-01-13T07:25:22.728Z,99.80
2019-01-13T07:27:51.946Z,99.70
2019-01-13T07:30:25.354Z,99.80
2019-01-13T07:32:54.819Z,99.80
2019-01-13T07:35:24.223Z,99.80
2019-01-13T07:37:53.552Z,99.90
2019-01-13T07:40:23.818Z,99.90
2019-01-13T07:42:53.801Z,99.90
2019-01-13T07:45:27.224Z,99.90
2019-01-13T07:47:56.578Z,99.90
2019-01-13T07:50:25.831Z,99.90
2019-01-13T07:52:55.173Z,99.90
2019-01-13T07:55:25.215Z,99.90
2019-01-13T07:57:54.453Z,99.90
2019-01-13T08:00:29.630Z,99.90
2019-01-13T08:02:58.832Z,99.90
2019-01-13T08:05:28.078Z,99.90
2019-01-13T08:07:57.410Z,99.90
2019-01-13T08:10:26.667Z,99.90
2019-01-13T08:12:56.015Z,99.90
2019-01-13T08:15:25.294Z,99.90
2019-01-13T08:17:54.719Z,99.90
2019-01-13T08:20:29.042Z,99.90
2019-01-13T08:22:58.442Z,99.90
2019-01-13T08:25:27.675Z,99.90
2019-01-13T08:27:56.986Z,99.90
2019-01-13T08:30:26.251Z,99.90
2019-01-13T08:32:55.564Z,99.90
2019-01-13T08:35:24.821Z,99.90
2019-01-13T08:37:54.067Z,99.90
2019-01-13T08:40:23.501Z,99.90
2019-01-13T08:42:52.779Z,99.90
2019-01-13T08:45:22.050Z,99.90
2019-01-13T08:47:51.286Z,99.90
2019-01-13T08:50:22.056Z,99.90
2019-01-13T08:52:51.426Z,99.90
2019-01-13T08:55:21.106Z,99.90
2019-01-13T08:57:50.363Z,99.90
2019-01-13T09:00:27.794Z,99.90
2019-01-13T09:02:57.036Z,99.90
2019-01-13T09:05:26.404Z,99.90
2019-01-13T09:07:55.666Z,99.90
2019-01-13T09:10:25.146Z,99.90
2019-01-13T09:12:56.904Z,99.90
2019-01-13T09:15:26.623Z,99.90
2019-01-13T09:17:55.935Z,99.90
2019-01-13T09:20:27.391Z,99.90
2019-01-13T09:23:00.261Z,99.90
2019-01-13T09:25:30.822Z,99.90
2019-01-13T09:28:00.056Z,99.90
2019-01-13T09:30:30.406Z,99.90
2019-01-13T09:32:59.813Z,99.90
2019-01-13T09:35:29.478Z,99.90
2019-01-13T09:37:58.875Z,99.90
2019-01-13T09:40:30.375Z,99.90
2019-01-13T09:43:01.251Z,99.90
2019-01-13T09:45:30.750Z,99.90
2019-01-13T09:47:59.966Z,99.90
2019-01-13T09:50:29.403Z,99.90
2019-01-13T09:52:58.652Z,99.90
2019-01-13T09:55:27.900Z,99.90
2019-01-13T09:57:57.182Z,99.90
2019-01-13T10:00:35.062Z,99.90
2019-01-13T10:03:04.725Z,99.90
2019-01-13T10:05:33.962Z,99.90
2019-01-13T10:08:03.214Z,99.90
2019-01-13T10:10:32.521Z,99.90
2019-01-13T10:13:01.856Z,99.90
2019-01-13T10:15:31.208Z,99.90
2019-01-13T10:18:00.495Z,99.90
2019-01-13T10:20:29.740Z,99.90
2019-01-13T10:22:58.985Z,99.90
2019-01-13T10:25:28.602Z,99.90
2019-01-13T10:27:57.981Z,99.90
2019-01-13T10:30:29.605Z,99.90
2019-01-13T10:32:58.899Z,99.90
2019-01-13T10:35:28.439Z,99.90
2019-01-13T10:37:57.730Z,99.90
2019-01-13T10:40:29.024Z,99.90
2019-01-13T10:42:58.591Z,99.90
2019-01-13T10:45:28.167Z,99.90
2019-01-13T10:47:57.393Z,99.90
2019-01-13T10:50:31.795Z,99.90
2019-01-13T10:53:03.290Z,99.90
2019-01-13T10:55:32.665Z,99.90
2019-01-13T10:58:02.002Z,99.90
2019-01-13T11:00:33.258Z,99.90
2019-01-13T11:03:02.798Z,99.90
2019-01-13T11:05:32.349Z,99.90
2019-01-13T11:08:01.861Z,99.90
2019-01-13T11:10:31.094Z,99.90
2019-01-13T11:13:00.482Z,99.90
2019-01-13T11:15:29.810Z,99.90
2019-01-13T11:17:59.174Z,99.90
2019-01-13T11:20:40.029Z,99.90
2019-01-13T11:23:09.424Z,99.90
2019-01-13T11:25:38.943Z,99.90
2019-01-13T11:28:08.837Z,99.90
2019-01-13T11:30:38.123Z,99.90
2019-01-13T11:33:09.692Z,99.90
2019-01-13T11:35:38.367Z,99.90
2019-01-13T11:38:08.125Z,99.90
2019-01-13T11:40:37.434Z,99.90
2019-01-13T11:43:06.715Z,99.90
2019-01-13T11:45:36.007Z,99.90
2019-01-13T11:48:05.468Z,99.90
2019-01-13T11:50:34.758Z,99.90
2019-01-13T11:53:04.101Z,99.90
2019-01-13T11:55:33.446Z,99.90
2019-01-13T11:58:02.785Z,99.90
2019-01-13T12:00:40.641Z,99.90
2019-01-13T12:03:16.490Z,99.90
2019-01-13T12:05:40.913Z,99.90
2019-01-13T12:08:10.164Z,99.90
2019-01-13T12:10:39.512Z,99.90
2019-01-13T12:13:08.773Z,99.90
2019-01-13T12:15:38.108Z,99.90
2019-01-13T12:18:07.387Z,99.90
2019-01-13T12:20:36.702Z,99.90
2019-01-13T12:23:06.163Z,99.90
2019-01-13T12:25:35.471Z,99.90
2019-01-13T12:28:05.118Z,99.90
2019-01-13T12:30:34.529Z,99.90
2019-01-13T12:33:04.298Z,99.90
2019-01-13T12:35:33.557Z,99.90
2019-01-13T12:38:03.138Z,99.90
2019-01-13T12:40:32.913Z,99.90
2019-01-13T12:43:03.622Z,99.90
2019-01-13T12:45:33.019Z,99.90
2019-01-13T12:48:02.394Z,99.90
2019-01-13T12:50:32.059Z,99.90
2019-01-13T12:53:01.660Z,99.90
2019-01-13T12:55:31.084Z,99.90
2019-01-13T12:58:00.370Z,99.90
2019-01-13T13:00:29.594Z,99.90
2019-01-13T13:02:58.986Z,99.90
2019-01-13T13:05:28.358Z,99.90
2019-01-13T13:07:57.602Z,99.90
2019-01-13T13:10:49.872Z,99.90
2019-01-13T13:13:19.165Z,99.90
2019-01-13T13:15:48.407Z,99.90
2019-01-13T13:18:17.724Z,99.90
2019-01-13T13:20:46.970Z,99.90
2019-01-13T13:23:16.208Z,99.90
2019-01-13T13:25:45.491Z,99.90
2019-01-13T13:28:14.726Z,99.90
2019-01-13T13:30:43.960Z,99.90
2019-01-13T13:33:13.418Z,99.90
2019-01-13T13:35:42.780Z,99.90
2019-01-13T13:38:12.136Z,99.90
2019-01-13T13:40:41.516Z,99.90
2019-01-13T13:43:10.824Z,99.90
2019-01-13T13:45:40.127Z,99.90
2019-01-13T13:48:09.486Z,99.90
2019-01-13T13:50:38.818Z,99.90
2019-01-13T13:53:08.163Z,99.90
2019-01-13T13:55:37.474Z,99.90
2019-01-13T13:58:06.802Z,99.90
2019-01-13T14:00:37.904Z,99.90
2019-01-13T14:03:07.322Z,99.90
2019-01-13T14:05:36.629Z,99.90
2019-01-13T14:08:06.782Z,99.90
2019-01-13T14:10:43.919Z,99.90
2019-01-13T14:13:13.636Z,99.90
2019-01-13T14:15:43.034Z,99.90
2019-01-13T14:18:31.377Z,99.90
2019-01-13T14:21:00.695Z,99.90
2019-01-13T14:23:29.903Z,99.90
2019-01-13T14:25:59.196Z,99.90
2019-01-13T14:28:28.463Z,99.90
2019-01-13T14:30:57.690Z,99.90
2019-01-13T14:33:27.098Z,99.90
2019-01-13T14:35:56.411Z,99.90
2019-01-13T14:38:25.650Z,99.90
2019-01-13T14:40:54.931Z,99.90
2019-01-13T14:43:24.212Z,99.90
2019-01-13T14:45:53.517Z,99.90
2019-01-13T14:48:22.839Z,99.90
2019-01-13T14:50:52.162Z,99.90
2019-01-13T14:53:23.226Z,99.90
2019-01-13T14:55:52.607Z,99.90
2019-01-13T14:58:21.852Z,99.90
2019-01-13T15:00:51.061Z,99.90
2019-01-13T15:03:20.329Z,99.90
2019-01-13T15:05:49.756Z,99.90
2019-01-13T15:08:19.030Z,99.90
2019-01-13T15:10:48.452Z,99.90
2019-01-13T15:13:17.722Z,99.90
2019-01-13T15:15:47.118Z,99.90
2019-01-13T15:18:16.382Z,99.90
2019-01-13T15:20:45.825Z,99.90
2019-01-13T15:23:15.086Z,99.90
2019-01-13T15:25:44.395Z,99.90
2019-01-13T15:28:13.615Z,99.90
2019-01-13T15:30:42.877Z,99.90
2019-01-13T15:33:12.205Z,99.90
2019-01-13T15:35:41.479Z,99.90
2019-01-13T15:38:11.231Z,99.90
2019-01-13T15:40:40.683Z,99.90
2019-01-13T15:43:09.970Z,99.90
2019-01-13T15:45:39.241Z,99.90
2019-01-13T15:48:08.950Z,99.90
2019-01-13T15:50:38.351Z,99.90
2019-01-13T15:53:07.675Z,99.90
2019-01-13T15:55:37.011Z,99.90
2019-01-13T15:58:06.715Z,99.90
2019-01-13T16:00:37.339Z,99.90
2019-01-13T16:03:08.598Z,99.90
2019-01-13T16:05:38.203Z,99.90
2019-01-13T16:08:08.674Z,99.90
2019-01-13T16:10:39.792Z,99.90
2019-01-13T16:13:09.103Z,99.90
2019-01-13T16:15:38.386Z,99.90
2019-01-13T16:18:08.843Z,99.90
2019-01-13T16:20:39.594Z,99.90
2019-01-13T16:23:08.844Z,99.90
2019-01-13T16:25:38.114Z,99.90
2019-01-13T16:28:08.053Z,99.90
2019-01-13T16:30:37.288Z,99.90
2019-01-13T16:33:06.540Z,99.90
2019-01-13T16:35:35.851Z,99.90
2019-01-13T16:38:06.799Z,99.90
2019-01-13T16:40:36.251Z,99.90
2019-01-13T16:43:05.530Z,99.90
2019-01-13T16:45:34.972Z,99.90
2019-01-13T16:48:05.029Z,99.90
2019-01-13T16:50:34.261Z,99.90
2019-01-13T16:53:06.091Z,99.90
2019-01-13T16:55:34.879Z,99.90
2019-01-13T16:58:04.373Z,99.90
2019-01-13T17:00:33.773Z,99.90
2019-01-13T17:03:03.144Z,99.90
2019-01-13T17:05:33.180Z,99.90
2019-01-13T17:08:02.707Z,99.90
2019-01-13T17:10:32.046Z,99.90
2019-01-13T17:13:01.273Z,99.90
2019-01-13T17:15:35.242Z,99.90
2019-01-13T17:18:05.170Z,99.90
2019-01-13T17:20:34.385Z,99.90
2019-01-13T17:23:03.597Z,99.90
2019-01-13T17:25:32.861Z,99.90
2019-01-13T17:28:02.257Z,99.90
2019-01-13T17:30:35.773Z,99.90
2019-01-13T17:33:05.403Z,99.90
2019-01-13T17:35:34.809Z,99.90
2019-01-13T17:38:04.256Z,99.90
2019-01-13T17:40:33.681Z,99.90
2019-01-13T17:43:02.971Z,99.90
2019-01-13T17:45:35.497Z,99.90
2019-01-13T17:48:06.192Z,99.90
2019-01-13T17:50:35.526Z,99.90
2019-01-13T17:53:07.099Z,99.90
2019-01-13T17:55:36.367Z,99.90
2019-01-13T17:58:06.173Z,99.90
2019-01-13T18:01:08.425Z,99.90
2019-01-13T18:03:43.521Z,99.90
2019-01-13T18:06:12.874Z,99.90
2019-01-13T18:08:42.150Z,99.90
2019-01-13T18:11:11.461Z,99.90
2019-01-13T18:13:40.720Z,99.90
2019-01-13T18:16:10.035Z,99.90
2019-01-13T18:18:39.253Z,99.90
2019-01-13T18:21:08.595Z,99.90
2019-01-13T18:23:37.857Z,99.90
2019-01-13T18:26:07.246Z,99.90
2019-01-13T18:28:36.524Z,99.90
2019-01-13T18:31:05.818Z,99.90
2019-01-13T18:33:35.044Z,99.90
2019-01-13T18:36:04.390Z,99.90
2019-01-13T18:38:33.628Z,99.90
2019-01-13T18:41:02.878Z,99.90
2019-01-13T18:43:32.199Z,99.90
2019-01-13T18:46:01.469Z,99.90
2019-01-13T18:48:30.761Z,99.90
2019-01-13T18:51:00.112Z,99.90
2019-01-13T18:53:29.404Z,99.90
2019-01-13T18:55:58.731Z,99.90
2019-01-13T18:58:28.178Z,99.90
2019-01-13T19:00:57.448Z,99.90
2019-01-13T19:03:28.146Z,99.90
2019-01-13T19:05:57.542Z,99.90
2019-01-13T19:08:26.794Z,99.90
2019-01-13T19:11:25.183Z,99.90
2019-01-13T19:14:15.551Z,99.90
2019-01-13T19:16:53.720Z,99.90
2019-01-13T19:19:23.074Z,99.90
2019-01-13T19:21:52.340Z,99.90
2019-01-13T19:24:21.631Z,99.90
2019-01-13T19:26:50.861Z,99.90
2019-01-13T19:29:20.239Z,99.90
2019-01-13T19:32:06.631Z,99.90
2019-01-13T19:34:31.595Z,99.90
2019-01-13T19:37:00.859Z,99.90
2019-01-13T19:39:30.159Z,99.90
2019-01-13T19:41:59.464Z,99.90
2019-01-13T19:44:28.774Z,99.90
2019-01-13T19:47:04.727Z,99.90
2019-01-13T19:49:34.071Z,99.90
2019-01-13T19:52:03.425Z,99.90
2019-01-13T19:54:32.693Z,99.90
2019-01-13T19:57:02.002Z,99.90
2019-01-13T19:59:31.255Z,99.90
2019-01-13T20:02:00.594Z,99.90
2019-01-13T20:04:29.980Z,99.90
2019-01-13T20:06:59.298Z,99.90
2019-01-13T20:09:28.594Z,99.90
2019-01-13T20:11:57.971Z,99.90
2019-01-13T20:14:27.219Z,99.90
2019-01-13T20:16:56.520Z,99.90
2019-01-13T20:19:25.841Z,99.90
2019-01-13T20:21:55.163Z,99.90
2019-01-13T20:24:24.476Z,99.90
2019-01-13T20:26:53.921Z,99.70
2019-01-13T20:29:23.214Z,99.40
2019-01-13T20:31:52.530Z,99.30
2019-01-13T20:34:21.799Z,99.20
2019-01-13T20:36:51.101Z,99.60
2019-01-13T20:39:21.380Z,99.30
2019-01-13T20:41:50.676Z,99.50
2019-01-13T20:44:19.957Z,99.60
2019-01-13T20:46:49.321Z,99.70
2019-01-13T20:49:18.595Z,99.90
2019-01-13T20:51:47.919Z,99.90
2019-01-13T20:54:17.314Z,99.90
2019-01-13T20:56:46.538Z,99.90
2019-01-13T20:59:15.790Z,99.90
2019-01-13T21:01:45.117Z,99.90
2019-01-13T21:04:14.441Z,99.90
2019-01-13T21:06:44.002Z,99.90
2019-01-13T21:09:13.339Z,99.90
2019-01-13T21:11:42.599Z,99.90
2019-01-13T21:14:11.907Z,99.90
2019-01-13T21:16:41.239Z,99.90
2019-01-13T21:19:10.525Z,99.90
2019-01-13T21:21:39.832Z,99.90
2019-01-13T21:24:09.186Z,99.90
2019-01-13T21:26:38.439Z,99.90
2019-01-13T21:29:07.822Z,99.90
2019-01-13T21:31:37.195Z,99.90
2019-01-13T21:34:06.677Z,99.90
2019-01-13T21:36:35.924Z,99.90
2019-01-13T21:39:08.479Z,99.90
2019-01-13T21:41:37.732Z,99.90
2019-01-13T21:44:07.226Z,99.90
2019-01-13T21:46:36.662Z,99.90
2019-01-13T21:49:06.064Z,99.90
2019-01-13T21:51:35.623Z,99.90
2019-01-13T21:54:10.930Z,99.90
2019-01-13T21:56:36.077Z,99.90
2019-01-13T21:59:05.333Z,99.90
2019-01-13T22:01:35.605Z,99.90
2019-01-13T22:04:05.514Z,99.50
2019-01-13T22:06:34.742Z,99.60
2019-01-13T22:09:08.037Z,99.30
2019-01-13T22:11:37.416Z,99.30
2019-01-13T22:14:06.795Z,99.00
2019-01-13T22:16:36.221Z,98.80
2019-01-13T22:19:05.451Z,98.60
2019-01-13T22:21:34.866Z,97.80
2019-01-13T22:24:04.552Z,97.70
2019-01-13T22:26:33.818Z,97.10
2019-01-13T22:29:03.091Z,97.00
2019-01-13T22:31:32.453Z,96.90
2019-01-13T22:34:01.750Z,97.00
2019-01-13T22:36:31.012Z,96.80
2019-01-13T22:39:00.351Z,96.60
2019-01-13T22:41:35.989Z,96.10
2019-01-13T22:44:10.618Z,96.20
2019-01-13T22:46:39.831Z,96.50
2019-01-13T22:49:09.258Z,96.50
2019-01-13T22:51:38.519Z,96.30
2019-01-13T22:54:07.815Z,96.70
2019-01-13T22:56:37.190Z,96.80
2019-01-13T22:59:06.487Z,97.00
2019-01-13T23:01:48.134Z,96.70
2019-01-13T23:04:18.592Z,96.90
2019-01-13T23:06:47.881Z,96.60
2019-01-13T23:09:17.109Z,97.10
2019-01-13T23:11:46.393Z,96.90
2019-01-13T23:14:15.647Z,97.20
2019-01-13T23:17:07.395Z,97.40
2019-01-13T23:19:36.761Z,97.70
2019-01-13T23:22:06.007Z,97.80
2019-01-13T23:24:35.368Z,97.80
2019-01-13T23:27:04.632Z,97.60
2019-01-13T23:29:33.908Z,98.00
2019-01-13T23:32:03.209Z,97.80
2019-01-13T23:34:32.436Z,97.60
2019-01-13T23:37:03.360Z,97.80
2019-01-13T23:39:32.637Z,97.80
2019-01-13T23:42:01.953Z,97.80
2019-01-13T23:44:31.292Z,97.80
2019-01-13T23:47:00.652Z,97.80
2019-01-13T23:49:30.138Z,97.70
2019-01-13T23:51:59.404Z,98.60
2019-01-13T23:54:28.726Z,99.90
2019-01-13T23:56:58.005Z,99.90
2019-01-13T23:59:27.359Z,99.90
